Mindoro Star — V7RE6 — position and weather

sailwx.info

Track history (hours):
 
Tides and Currents Weather Stations Pressure Air Temp Water Temp Dewpoint Dewpoint Depression Visibility Wind Speed Wind Dir Waves Ship Positions

Mindoro Star

Last reported at 2017-Jul-25 10:59 UTC. Time now 2017-Jul-26 00:43 UTC.
Position N 29°07' W 094°35'.

Length 238 m; draft 8.4 m.

Type: Tanker. MMSI: 538003490.

Date/timePositionNaut miles runAvg speedWind from/ knotsBaromVisibWave heightAir tempDewpointWater temp
2017-Jul-25 10:59N 29°07' W 094°35'0 0.0
2017-Jul-25 06:29N 29°07' W 094°35'0 0.0
2017-Jul-25 05:59N 29°07' W 094°35'0 0.0
2017-Jul-25 05:17N 29°07' W 094°35'0 0.0
2017-Jul-25 04:53N 29°07' W 094°35'24 1.0
2017-Jul-24 05:49N 29°27' W 094°51'412.6
2017-Jul-24 05:30N 29°31' W 094°53'611.9
2017-Jul-24 05:01N 29°36' W 094°57'611.6
2017-Jul-24 04:31N 29°41' W 094°59'4 8.1
2017-Jul-24 04:01N 29°44' W 095°02'  
2017-Jul-21 21:26N 29°45' W 095°06'0 1.0
2017-Jul-21 21:00N 29°45' W 095°06'2 4.7
2017-Jul-21 20:30N 29°44' W 095°03'3 6.3
2017-Jul-21 20:00N 29°42' W 095°01'4 8.6
2017-Jul-21 19:30N 29°38' W 094°58'510.5
2017-Jul-21 19:00N 29°34' W 094°55'510.7
2017-Jul-21 18:30N 29°29' W 094°52'  
Track history (hours):
 
Tides and Currents Weather Stations Pressure Air Temp Water Temp Dewpoint Dewpoint Depression Visibility Wind Speed Wind Dir Waves Ship Positions

Mindoro Star

Last reported at 2017-Jul-25 10:59 UTC. Time now 2017-Jul-26 00:43 UTC.
Position N 29°07' W 094°35'.

Length 238 m; draft 8.4 m.

Type: Tanker. MMSI: 538003490.

Date/timePositionNaut miles runAvg speedWind from/ knotsBaromVisibWave heightAir tempDewpointWater temp
2017-Jul-25 10:59N 29°07' W 094°35'0 0.0
2017-Jul-25 06:29N 29°07' W 094°35'0 0.0
2017-Jul-25 05:59N 29°07' W 094°35'0 0.0
2017-Jul-25 05:17N 29°07' W 094°35'0 0.0
2017-Jul-25 04:53N 29°07' W 094°35'24 1.0
2017-Jul-24 05:49N 29°27' W 094°51'412.6
2017-Jul-24 05:30N 29°31' W 094°53'611.9
2017-Jul-24 05:01N 29°36' W 094°57'611.6
2017-Jul-24 04:31N 29°41' W 094°59'4 8.1
2017-Jul-24 04:01N 29°44' W 095°02'  
2017-Jul-21 21:26N 29°45' W 095°06'0 1.0
2017-Jul-21 21:00N 29°45' W 095°06'2 4.7
2017-Jul-21 20:30N 29°44' W 095°03'3 6.3
2017-Jul-21 20:00N 29°42' W 095°01'4 8.6
2017-Jul-21 19:30N 29°38' W 094°58'510.5
2017-Jul-21 19:00N 29°34' W 094°55'510.7
2017-Jul-21 18:30N 29°29' W 094°52'  

Dump ship's entire track history